You are not logged in, Click here to log in
機場資訊:EBBR Welcome to Taiwan Airways 台灣虛擬航空
ICAO: EBBR Country: 比利時首都布魯塞爾東北方6海里
Latitude: 50.901 Longitude: 4.48557
Total Arrivals: 6 Total Departures: 7
Latest Arrival: CX2067 (EGLL-EBBR)KE. CHIH-HAO Latest Departure: CX2067 (EBBR-VABB)KE. CHIH-HAO
Scenery:
METAR : EBBR 141820Z 15007KT CAVOK 19/15 Q1005 TEMPO 4500 SHRA

布魯塞爾機場